sensor_id;sensor_type;location;lat;lon;timestamp;P1;durP1;ratioP1;P2;durP2;ratioP2
17310;SDS011;8773;43.300;0.394;2023-06-10T00:02:22;3.27;;;2.00;;
17310;SDS011;8773;43.300;0.394;2023-06-10T00:04:49;3.73;;;1.80;;
17310;SDS011;8773;43.300;0.394;2023-06-10T00:07:17;2.20;;;2.00;;
17310;SDS011;8773;43.300;0.394;2023-06-10T00:09:45;3.00;;;1.97;;
17310;SDS011;8773;43.300;0.394;2023-06-10T00:12:12;3.07;;;1.80;;
17310;SDS011;8773;43.300;0.394;2023-06-10T00:14:40;2.08;;;1.52;;
17310;SDS011;8773;43.300;0.394;2023-06-10T00:17:07;2.50;;;2.28;;
17310;SDS011;8773;43.300;0.394;2023-06-10T00:19:36;2.30;;;1.87;;
17310;SDS011;8773;43.300;0.394;2023-06-10T00:22:04;3.67;;;2.10;;
17310;SDS011;8773;43.300;0.394;2023-06-10T00:24:32;2.43;;;2.00;;
17310;SDS011;8773;43.300;0.394;2023-06-10T00:26:59;2.30;;;2.10;;
17310;SDS011;8773;43.300;0.394;2023-06-10T00:29:27;2.73;;;1.67;;
17310;SDS011;8773;43.300;0.394;2023-06-10T00:31:54;1.90;;;1.77;;
17310;SDS011;8773;43.300;0.394;2023-06-10T00:34:21;4.17;;;1.83;;
17310;SDS011;8773;43.300;0.394;2023-06-10T00:36:50;3.13;;;1.70;;
17310;SDS011;8773;43.300;0.394;2023-06-10T00:39:18;1.93;;;1.60;;
17310;SDS011;8773;43.300;0.394;2023-06-10T00:41:45;2.60;;;2.00;;
17310;SDS011;8773;43.300;0.394;2023-06-10T00:44:13;2.60;;;1.70;;
17310;SDS011;8773;43.300;0.394;2023-06-10T00:46:40;2.40;;;1.90;;
17310;SDS011;8773;43.300;0.394;2023-06-10T00:49:08;2.37;;;1.73;;
17310;SDS011;8773;43.300;0.394;2023-06-10T00:51:35;1.83;;;1.50;;
17310;SDS011;8773;43.300;0.394;2023-06-10T00:54:04;2.53;;;1.70;;
17310;SDS011;8773;43.300;0.394;2023-06-10T00:56:32;2.17;;;1.97;;
17310;SDS011;8773;43.300;0.394;2023-06-10T00:59:00;3.57;;;1.90;;
17310;SDS011;8773;43.300;0.394;2023-06-10T01:01:28;2.07;;;1.87;;
17310;SDS011;8773;43.300;0.394;2023-06-10T01:03:55;2.77;;;2.17;;
17310;SDS011;8773;43.300;0.394;2023-06-10T01:06:24;2.70;;;1.83;;
17310;SDS011;8773;43.300;0.394;2023-06-10T01:09:02;2.30;;;1.70;;
17310;SDS011;8773;43.300;0.394;2023-06-10T01:11:42;2.47;;;1.90;;
17310;SDS011;8773;43.300;0.394;2023-06-10T01:14:14;2.00;;;1.70;;
17310;SDS011;8773;43.300;0.394;2023-06-10T01:16:43;2.83;;;1.80;;
17310;SDS011;8773;43.300;0.394;2023-06-10T01:19:11;2.80;;;1.70;;
17310;SDS011;8773;43.300;0.394;2023-06-10T01:21:40;1.83;;;1.70;;
17310;SDS011;8773;43.300;0.394;2023-06-10T01:24:07;1.80;;;1.67;;
17310;SDS011;8773;43.300;0.394;2023-06-10T01:26:35;2.10;;;1.77;;
17310;SDS011;8773;43.300;0.394;2023-06-10T01:29:05;2.80;;;2.03;;
17310;SDS011;8773;43.300;0.394;2023-06-10T01:31:38;2.60;;;1.80;;
17310;SDS011;8773;43.300;0.394;2023-06-10T01:34:11;2.67;;;1.90;;
17310;SDS011;8773;43.300;0.394;2023-06-10T01:36:43;1.80;;;1.70;;
17310;SDS011;8773;43.300;0.394;2023-06-10T01:39:13;2.50;;;2.00;;
17310;SDS011;8773;43.300;0.394;2023-06-10T01:41:42;2.27;;;1.90;;
17310;SDS011;8773;43.300;0.394;2023-06-10T01:44:10;2.03;;;1.80;;
17310;SDS011;8773;43.300;0.394;2023-06-10T01:46:37;2.03;;;1.90;;
17310;SDS011;8773;43.300;0.394;2023-06-10T01:49:05;1.87;;;1.77;;
17310;SDS011;8773;43.300;0.394;2023-06-10T01:51:32;2.63;;;2.43;;
17310;SDS011;8773;43.300;0.394;2023-06-10T01:54:01;1.77;;;1.67;;
17310;SDS011;8773;43.300;0.394;2023-06-10T01:56:29;2.83;;;2.00;;
17310;SDS011;8773;43.300;0.394;2023-06-10T01:58:56;2.83;;;2.20;;
17310;SDS011;8773;43.300;0.394;2023-06-10T02:01:24;2.77;;;1.83;;
17310;SDS011;8773;43.300;0.394;2023-06-10T02:03:51;1.70;;;1.60;;
17310;SDS011;8773;43.300;0.394;2023-06-10T02:06:19;2.88;;;1.60;;
17310;SDS011;8773;43.300;0.394;2023-06-10T02:08:47;2.60;;;1.80;;
17310;SDS011;8773;43.300;0.394;2023-06-10T02:11:15;3.67;;;1.57;;
17310;SDS011;8773;43.300;0.394;2023-06-10T02:13:43;1.73;;;1.63;;
17310;SDS011;8773;43.300;0.394;2023-06-10T02:16:11;1.83;;;1.73;;
17310;SDS011;8773;43.300;0.394;2023-06-10T02:18:38;2.27;;;1.53;;
17310;SDS011;8773;43.300;0.394;2023-06-10T02:21:06;4.67;;;1.87;;
17310;SDS011;8773;43.300;0.394;2023-06-10T02:23:33;2.73;;;1.83;;
17310;SDS011;8773;43.300;0.394;2023-06-10T02:26:01;2.93;;;1.60;;
17310;SDS011;8773;43.300;0.394;2023-06-10T02:28:30;1.90;;;1.77;;
17310;SDS011;8773;43.300;0.394;2023-06-10T02:30:57;2.00;;;1.73;;
17310;SDS011;8773;43.300;0.394;2023-06-10T02:33:25;1.73;;;1.63;;
17310;SDS011;8773;43.300;0.394;2023-06-10T02:35:52;2.13;;;2.03;;
17310;SDS011;8773;43.300;0.394;2023-06-10T02:38:20;1.63;;;1.57;;
17310;SDS011;8773;43.300;0.394;2023-06-10T02:40:47;1.97;;;1.70;;
17310;SDS011;8773;43.300;0.394;2023-06-10T02:43:15;2.00;;;1.80;;
17310;SDS011;8773;43.300;0.394;2023-06-10T02:45:43;1.60;;;1.50;;
17310;SDS011;8773;43.300;0.394;2023-06-10T02:48:11;2.43;;;1.67;;
17310;SDS011;8773;43.300;0.394;2023-06-10T02:50:38;2.07;;;1.43;;
17310;SDS011;8773;43.300;0.394;2023-06-10T02:53:06;2.47;;;1.60;;
17310;SDS011;8773;43.300;0.394;2023-06-10T02:55:33;6.73;;;1.83;;
17310;SDS011;8773;43.300;0.394;2023-06-10T02:58:01;1.50;;;1.50;;
17310;SDS011;8773;43.300;0.394;2023-06-10T03:00:28;1.90;;;1.70;;
17310;SDS011;8773;43.300;0.394;2023-06-10T03:02:57;4.47;;;2.13;;
17310;SDS011;8773;43.300;0.394;2023-06-10T03:05:24;3.43;;;1.70;;
17310;SDS011;8773;43.300;0.394;2023-06-10T03:07:52;3.57;;;1.60;;
17310;SDS011;8773;43.300;0.394;2023-06-10T03:10:19;1.83;;;1.73;;
17310;SDS011;8773;43.300;0.394;2023-06-10T03:12:47;3.10;;;1.67;;
17310;SDS011;8773;43.300;0.394;2023-06-10T03:15:14;3.27;;;1.70;;
17310;SDS011;8773;43.300;0.394;2023-06-10T03:17:42;2.50;;;1.60;;
17310;SDS011;8773;43.300;0.394;2023-06-10T03:20:12;2.30;;;1.63;;
17310;SDS011;8773;43.300;0.394;2023-06-10T03:22:39;1.40;;;1.30;;
17310;SDS011;8773;43.300;0.394;2023-06-10T03:25:07;2.67;;;1.87;;
17310;SDS011;8773;43.300;0.394;2023-06-10T03:27:36;2.83;;;1.67;;
17310;SDS011;8773;43.300;0.394;2023-06-10T03:30:03;5.10;;;1.87;;
17310;SDS011;8773;43.300;0.394;2023-06-10T03:32:31;2.40;;;1.73;;
17310;SDS011;8773;43.300;0.394;2023-06-10T03:34:58;3.93;;;1.80;;
17310;SDS011;8773;43.300;0.394;2023-06-10T03:37:27;1.63;;;1.50;;
17310;SDS011;8773;43.300;0.394;2023-06-10T03:39:55;4.60;;;1.80;;
17310;SDS011;8773;43.300;0.394;2023-06-10T03:42:22;1.23;;;1.20;;
17310;SDS011;8773;43.300;0.394;2023-06-10T03:44:49;2.30;;;1.50;;
17310;SDS011;8773;43.300;0.394;2023-06-10T03:47:17;3.63;;;1.60;;
17310;SDS011;8773;43.300;0.394;2023-06-10T03:49:44;5.53;;;1.60;;
17310;SDS011;8773;43.300;0.394;2023-06-10T03:52:12;2.40;;;1.70;;
17310;SDS011;8773;43.300;0.394;2023-06-10T03:54:41;2.77;;;1.60;;
17310;SDS011;8773;43.300;0.394;2023-06-10T03:57:08;3.67;;;1.93;;
17310;SDS011;8773;43.300;0.394;2023-06-10T03:59:36;1.97;;;1.50;;
17310;SDS011;8773;43.300;0.394;2023-06-10T04:02:03;2.00;;;1.80;;
17310;SDS011;8773;43.300;0.394;2023-06-10T04:04:31;1.93;;;1.73;;
17310;SDS011;8773;43.300;0.394;2023-06-10T04:06:59;5.17;;;1.80;;
17310;SDS011;8773;43.300;0.394;2023-06-10T04:09:26;1.60;;;1.50;;
17310;SDS011;8773;43.300;0.394;2023-06-10T04:11:55;3.63;;;1.47;;
17310;SDS011;8773;43.300;0.394;2023-06-10T04:14:22;2.07;;;1.80;;
17310;SDS011;8773;43.300;0.394;2023-06-10T04:16:49;2.70;;;1.50;;
17310;SDS011;8773;43.300;0.394;2023-06-10T04:19:17;2.50;;;1.60;;
17310;SDS011;8773;43.300;0.394;2023-06-10T04:21:45;2.43;;;1.60;;
17310;SDS011;8773;43.300;0.394;2023-06-10T04:24:12;1.60;;;1.50;;
17310;SDS011;8773;43.300;0.394;2023-06-10T04:26:40;2.13;;;1.67;;
17310;SDS011;8773;43.300;0.394;2023-06-10T04:29:08;2.00;;;1.77;;
17310;SDS011;8773;43.300;0.394;2023-06-10T04:31:36;2.80;;;1.70;;
17310;SDS011;8773;43.300;0.394;2023-06-10T04:34:03;3.43;;;1.83;;
17310;SDS011;8773;43.300;0.394;2023-06-10T04:36:31;1.93;;;1.40;;
17310;SDS011;8773;43.300;0.394;2023-06-10T04:38:58;3.00;;;1.90;;
17310;SDS011;8773;43.300;0.394;2023-06-10T04:41:27;1.90;;;1.73;;
17310;SDS011;8773;43.300;0.394;2023-06-10T04:43:54;2.00;;;1.70;;
17310;SDS011;8773;43.300;0.394;2023-06-10T04:46:23;1.80;;;1.70;;
17310;SDS011;8773;43.300;0.394;2023-06-10T04:48:51;2.50;;;1.57;;
17310;SDS011;8773;43.300;0.394;2023-06-10T04:51:18;2.27;;;1.83;;
17310;SDS011;8773;43.300;0.394;2023-06-10T04:53:45;1.90;;;1.60;;
17310;SDS011;8773;43.300;0.394;2023-06-10T04:56:13;2.87;;;1.70;;
17310;SDS011;8773;43.300;0.394;2023-06-10T04:58:40;2.53;;;1.70;;
17310;SDS011;8773;43.300;0.394;2023-06-10T05:01:08;2.50;;;1.53;;
17310;SDS011;8773;43.300;0.394;2023-06-10T05:03:36;3.13;;;1.87;;
17310;SDS011;8773;43.300;0.394;2023-06-10T05:06:04;2.37;;;2.10;;
17310;SDS011;8773;43.300;0.394;2023-06-10T05:08:31;2.23;;;1.70;;
17310;SDS011;8773;43.300;0.394;2023-06-10T05:10:59;2.87;;;1.57;;
17310;SDS011;8773;43.300;0.394;2023-06-10T05:13:27;2.10;;;1.53;;
17310;SDS011;8773;43.300;0.394;2023-06-10T05:15:54;1.70;;;1.60;;
17310;SDS011;8773;43.300;0.394;2023-06-10T05:18:21;2.03;;;1.40;;
17310;SDS011;8773;43.300;0.394;2023-06-10T05:20:50;4.30;;;1.60;;
17310;SDS011;8773;43.300;0.394;2023-06-10T05:23:18;1.77;;;1.58;;
17310;SDS011;8773;43.300;0.394;2023-06-10T05:25:45;2.13;;;1.70;;
17310;SDS011;8773;43.300;0.394;2023-06-10T05:28:13;2.17;;;1.58;;
17310;SDS011;8773;43.300;0.394;2023-06-10T05:30:41;2.45;;;1.52;;
17310;SDS011;8773;43.300;0.394;2023-06-10T05:33:09;3.20;;;1.42;;
17310;SDS011;8773;43.300;0.394;2023-06-10T05:35:36;2.17;;;1.50;;
17310;SDS011;8773;43.300;0.394;2023-06-10T05:38:05;2.13;;;1.70;;
17310;SDS011;8773;43.300;0.394;2023-06-10T05:40:33;113.82;;;107.10;;
17310;SDS011;8773;43.300;0.394;2023-06-10T05:43:00;3.88;;;1.90;;
17310;SDS011;8773;43.300;0.394;2023-06-10T05:45:28;475.77;;;440.70;;
17310;SDS011;8773;43.300;0.394;2023-06-10T05:50:23;585.15;;;540.10;;
17310;SDS011;8773;43.300;0.394;2023-06-10T05:52:51;73.93;;;23.17;;
17310;SDS011;8773;43.300;0.394;2023-06-10T05:55:19;1.70;;;1.52;;
17310;SDS011;8773;43.300;0.394;2023-06-10T05:57:47;2.70;;;1.70;;
17310;SDS011;8773;43.300;0.394;2023-06-10T06:02:44;3.10;;;1.45;;
17310;SDS011;8773;43.300;0.394;2023-06-10T06:05:12;550.20;;;511.80;;
17310;SDS011;8773;43.300;0.394;2023-06-10T13:23:49;1273.30;;;999.90;;
17310;SDS011;8773;43.300;0.394;2023-06-10T13:31:12;1279.80;;;999.90;;
17310;SDS011;8773;43.300;0.394;2023-06-10T13:33:39;1288.80;;;999.90;;
17310;SDS011;8773;43.300;0.394;2023-06-10T13:50:53;1295.70;;;999.90;;
17310;SDS011;8773;43.300;0.394;2023-06-10T13:58:15;1284.70;;;999.90;;
17310;SDS011;8773;43.300;0.394;2023-06-10T14:00:43;1306.97;;;999.90;;
17310;SDS011;8773;43.300;0.394;2023-06-10T14:03:10;1302.93;;;999.90;;
17310;SDS011;8773;43.300;0.394;2023-06-10T14:05:39;1309.43;;;999.90;;
17310;SDS011;8773;43.300;0.394;2023-06-10T14:08:06;1298.55;;;999.90;;
17310;SDS011;8773;43.300;0.394;2023-06-10T14:10:34;1307.70;;;999.90;;
17310;SDS011;8773;43.300;0.394;2023-06-10T14:13:01;1296.25;;;999.90;;
17310;SDS011;8773;43.300;0.394;2023-06-10T14:15:29;1301.90;;;999.90;;
17310;SDS011;8773;43.300;0.394;2023-06-10T14:17:56;1288.95;;;999.90;;
17310;SDS011;8773;43.300;0.394;2023-06-10T14:20:23;1294.55;;;999.90;;
17310;SDS011;8773;43.300;0.394;2023-06-10T14:22:53;1291.20;;;999.90;;
17310;SDS011;8773;43.300;0.394;2023-06-10T14:25:20;1291.05;;;999.90;;
17310;SDS011;8773;43.300;0.394;2023-06-10T14:27:47;1284.15;;;999.90;;
17310;SDS011;8773;43.300;0.394;2023-06-10T14:30:15;1294.55;;;999.90;;
17310;SDS011;8773;43.300;0.394;2023-06-10T14:32:42;1291.50;;;999.90;;
17310;SDS011;8773;43.300;0.394;2023-06-10T14:35:10;1297.22;;;999.90;;
17310;SDS011;8773;43.300;0.394;2023-06-10T14:37:37;1294.93;;;999.90;;
17310;SDS011;8773;43.300;0.394;2023-06-10T14:40:07;1300.10;;;999.90;;
17310;SDS011;8773;43.300;0.394;2023-06-10T14:42:35;1292.53;;;999.90;;
17310;SDS011;8773;43.300;0.394;2023-06-10T14:45:03;1299.30;;;999.90;;
17310;SDS011;8773;43.300;0.394;2023-06-10T14:47:31;1294.97;;;999.90;;
17310;SDS011;8773;43.300;0.394;2023-06-10T14:49:59;1289.25;;;999.90;;
17310;SDS011;8773;43.300;0.394;2023-06-10T14:52:26;1290.43;;;999.90;;
17310;SDS011;8773;43.300;0.394;2023-06-10T14:54:54;1294.50;;;999.90;;
17310;SDS011;8773;43.300;0.394;2023-06-10T14:57:22;1296.93;;;999.90;;
17310;SDS011;8773;43.300;0.394;2023-06-10T14:59:50;1297.05;;;999.90;;
17310;SDS011;8773;43.300;0.394;2023-06-10T16:11:06;1330.03;;;999.90;;
17310;SDS011;8773;43.300;0.394;2023-06-10T16:13:34;1319.20;;;999.90;;
17310;SDS011;8773;43.300;0.394;2023-06-10T17:39:33;1276.90;;;999.90;;
17310;SDS011;8773;43.300;0.394;2023-06-10T20:02:07;387.30;;;6542.30;;
17310;SDS011;8773;43.300;0.394;2023-06-10T21:52:42;1144.20;;;999.90;;
